sensor_id;sensor_type;location;lat;lon;timestamp;temperature;humidity
44559;DHT22;30270;40.238;18.256;2022-12-08T00:01:30;13.80;99.90
44559;DHT22;30270;40.238;18.256;2022-12-08T00:04:00;13.90;99.90
44559;DHT22;30270;40.238;18.256;2022-12-08T00:09:17;14.00;99.90
44559;DHT22;30270;40.238;18.256;2022-12-08T00:12:02;14.00;99.90
44559;DHT22;30270;40.238;18.256;2022-12-08T00:14:31;14.00;99.90
44559;DHT22;30270;40.238;18.256;2022-12-08T00:16:59;14.00;99.90
44559;DHT22;30270;40.238;18.256;2022-12-08T00:19:28;14.00;99.90
44559;DHT22;30270;40.238;18.256;2022-12-08T00:21:56;13.90;99.90
44559;DHT22;30270;40.238;18.256;2022-12-08T00:24:29;13.90;99.90
44559;DHT22;30270;40.238;18.256;2022-12-08T00:26:57;13.90;99.90
44559;DHT22;30270;40.238;18.256;2022-12-08T00:29:25;13.90;99.90
44559;DHT22;30270;40.238;18.256;2022-12-08T00:31:55;13.90;99.90
44559;DHT22;30270;40.238;18.256;2022-12-08T00:34:23;13.90;99.90
44559;DHT22;30270;40.238;18.256;2022-12-08T00:36:50;13.90;99.90
44559;DHT22;30270;40.238;18.256;2022-12-08T00:39:18;13.90;99.90
44559;DHT22;30270;40.238;18.256;2022-12-08T00:41:46;13.90;99.90
44559;DHT22;30270;40.238;18.256;2022-12-08T00:44:32;13.90;99.90
44559;DHT22;30270;40.238;18.256;2022-12-08T00:46:59;13.90;99.90
44559;DHT22;30270;40.238;18.256;2022-12-08T00:49:27;13.90;99.90
44559;DHT22;30270;40.238;18.256;2022-12-08T00:51:55;13.90;99.90
44559;DHT22;30270;40.238;18.256;2022-12-08T00:54:22;14.00;99.90
44559;DHT22;30270;40.238;18.256;2022-12-08T00:56:50;14.00;99.90
44559;DHT22;30270;40.238;18.256;2022-12-08T00:59:18;14.00;99.90
44559;DHT22;30270;40.238;18.256;2022-12-08T01:01:46;14.00;99.90
44559;DHT22;30270;40.238;18.256;2022-12-08T01:04:16;14.00;99.90
44559;DHT22;30270;40.238;18.256;2022-12-08T01:06:44;13.90;99.90
44559;DHT22;30270;40.238;18.256;2022-12-08T01:09:12;14.00;99.90
44559;DHT22;30270;40.238;18.256;2022-12-08T01:11:42;13.90;99.90
44559;DHT22;30270;40.238;18.256;2022-12-08T01:14:11;13.90;99.90
44559;DHT22;30270;40.238;18.256;2022-12-08T01:16:39;14.00;99.90
44559;DHT22;30270;40.238;18.256;2022-12-08T01:19:14;13.90;99.90
44559;DHT22;30270;40.238;18.256;2022-12-08T01:21:42;14.00;99.90
44559;DHT22;30270;40.238;18.256;2022-12-08T01:24:12;14.00;99.90
44559;DHT22;30270;40.238;18.256;2022-12-08T01:26:39;14.00;99.90
44559;DHT22;30270;40.238;18.256;2022-12-08T01:29:07;14.00;99.90
44559;DHT22;30270;40.238;18.256;2022-12-08T01:31:35;14.00;99.90
44559;DHT22;30270;40.238;18.256;2022-12-08T01:34:03;14.00;99.90
44559;DHT22;30270;40.238;18.256;2022-12-08T01:36:32;14.00;99.90
44559;DHT22;30270;40.238;18.256;2022-12-08T01:39:00;14.00;99.90
44559;DHT22;30270;40.238;18.256;2022-12-08T01:41:30;13.90;99.90
44559;DHT22;30270;40.238;18.256;2022-12-08T01:46:39;13.90;99.90
44559;DHT22;30270;40.238;18.256;2022-12-08T01:54:25;13.80;99.90
44559;DHT22;30270;40.238;18.256;2022-12-08T01:56:57;13.80;99.90
44559;DHT22;30270;40.238;18.256;2022-12-08T01:59:27;13.80;99.90
44559;DHT22;30270;40.238;18.256;2022-12-08T02:01:56;13.70;99.90
44559;DHT22;30270;40.238;18.256;2022-12-08T02:04:24;13.70;99.90
44559;DHT22;30270;40.238;18.256;2022-12-08T02:06:51;13.70;99.90
44559;DHT22;30270;40.238;18.256;2022-12-08T02:09:20;13.70;99.90
44559;DHT22;30270;40.238;18.256;2022-12-08T02:11:55;13.70;99.90
44559;DHT22;30270;40.238;18.256;2022-12-08T02:14:24;13.60;99.90
44559;DHT22;30270;40.238;18.256;2022-12-08T02:22:45;13.60;99.90
44559;DHT22;30270;40.238;18.256;2022-12-08T02:28:18;13.50;99.90
44559;DHT22;30270;40.238;18.256;2022-12-08T02:31:56;13.40;99.90
44559;DHT22;30270;40.238;18.256;2022-12-08T02:37:08;13.40;99.90
44559;DHT22;30270;40.238;18.256;2022-12-08T02:39:47;13.40;99.90
44559;DHT22;30270;40.238;18.256;2022-12-08T02:45:24;13.30;99.90
44559;DHT22;30270;40.238;18.256;2022-12-08T02:47:54;13.30;99.90
44559;DHT22;30270;40.238;18.256;2022-12-08T02:50:22;13.30;99.90
44559;DHT22;30270;40.238;18.256;2022-12-08T02:52:49;13.30;99.90
44559;DHT22;30270;40.238;18.256;2022-12-08T03:07:03;13.20;99.90
44559;DHT22;30270;40.238;18.256;2022-12-08T03:09:37;13.10;99.90
44559;DHT22;30270;40.238;18.256;2022-12-08T03:14:45;13.20;99.90
44559;DHT22;30270;40.238;18.256;2022-12-08T03:17:15;13.10;99.90
44559;DHT22;30270;40.238;18.256;2022-12-08T03:19:45;13.10;99.90
44559;DHT22;30270;40.238;18.256;2022-12-08T03:22:17;13.10;99.90
44559;DHT22;30270;40.238;18.256;2022-12-08T03:24:46;13.10;99.90
44559;DHT22;30270;40.238;18.256;2022-12-08T03:27:18;13.10;99.90
44559;DHT22;30270;40.238;18.256;2022-12-08T03:29:49;13.00;99.90
44559;DHT22;30270;40.238;18.256;2022-12-08T03:32:40;13.00;99.90
44559;DHT22;30270;40.238;18.256;2022-12-08T03:35:16;13.10;99.90
44559;DHT22;30270;40.238;18.256;2022-12-08T03:37:44;13.00;99.90
44559;DHT22;30270;40.238;18.256;2022-12-08T03:40:16;13.00;99.90
44559;DHT22;30270;40.238;18.256;2022-12-08T03:42:44;13.10;99.90
44559;DHT22;30270;40.238;18.256;2022-12-08T03:45:11;13.10;99.90
44559;DHT22;30270;40.238;18.256;2022-12-08T03:47:39;13.00;99.90
44559;DHT22;30270;40.238;18.256;2022-12-08T03:50:07;13.00;99.90
44559;DHT22;30270;40.238;18.256;2022-12-08T03:52:34;13.00;99.90
44559;DHT22;30270;40.238;18.256;2022-12-08T03:55:02;13.00;99.90
44559;DHT22;30270;40.238;18.256;2022-12-08T03:57:29;13.00;99.90
44559;DHT22;30270;40.238;18.256;2022-12-08T03:59:57;13.10;99.90
44559;DHT22;30270;40.238;18.256;2022-12-08T04:02:24;13.10;99.90
44559;DHT22;30270;40.238;18.256;2022-12-08T04:04:52;13.10;99.90
44559;DHT22;30270;40.238;18.256;2022-12-08T04:07:19;13.10;99.90
44559;DHT22;30270;40.238;18.256;2022-12-08T04:09:47;13.10;99.90
44559;DHT22;30270;40.238;18.256;2022-12-08T04:12:14;13.20;99.90
44559;DHT22;30270;40.238;18.256;2022-12-08T04:14:42;13.10;99.90
44559;DHT22;30270;40.238;18.256;2022-12-08T04:17:09;13.20;99.90
44559;DHT22;30270;40.238;18.256;2022-12-08T04:19:37;13.20;99.90
44559;DHT22;30270;40.238;18.256;2022-12-08T04:22:06;13.30;99.90
44559;DHT22;30270;40.238;18.256;2022-12-08T04:24:34;13.30;99.90
44559;DHT22;30270;40.238;18.256;2022-12-08T04:27:01;13.40;99.90
44559;DHT22;30270;40.238;18.256;2022-12-08T04:29:29;13.40;99.90
44559;DHT22;30270;40.238;18.256;2022-12-08T04:31:56;13.40;99.90
44559;DHT22;30270;40.238;18.256;2022-12-08T04:34:24;13.30;99.90
44559;DHT22;30270;40.238;18.256;2022-12-08T04:36:51;13.40;99.90
44559;DHT22;30270;40.238;18.256;2022-12-08T04:39:18;13.40;99.90
44559;DHT22;30270;40.238;18.256;2022-12-08T04:41:46;13.40;99.90
44559;DHT22;30270;40.238;18.256;2022-12-08T04:44:13;13.40;99.90
44559;DHT22;30270;40.238;18.256;2022-12-08T04:46:41;13.30;99.90
44559;DHT22;30270;40.238;18.256;2022-12-08T04:49:09;13.30;99.90
44559;DHT22;30270;40.238;18.256;2022-12-08T04:51:37;13.30;99.90
44559;DHT22;30270;40.238;18.256;2022-12-08T04:54:04;13.40;99.90
44559;DHT22;30270;40.238;18.256;2022-12-08T04:56:32;13.30;99.90
44559;DHT22;30270;40.238;18.256;2022-12-08T04:58:59;13.30;99.90
44559;DHT22;30270;40.238;18.256;2022-12-08T05:01:27;13.30;99.90
44559;DHT22;30270;40.238;18.256;2022-12-08T05:03:54;13.30;99.90
44559;DHT22;30270;40.238;18.256;2022-12-08T05:06:22;13.30;99.90
44559;DHT22;30270;40.238;18.256;2022-12-08T05:08:50;13.30;99.90
44559;DHT22;30270;40.238;18.256;2022-12-08T05:11:18;13.30;99.90
44559;DHT22;30270;40.238;18.256;2022-12-08T05:13:46;13.30;99.90
44559;DHT22;30270;40.238;18.256;2022-12-08T05:16:14;13.30;99.90
44559;DHT22;30270;40.238;18.256;2022-12-08T05:18:42;13.30;99.90
44559;DHT22;30270;40.238;18.256;2022-12-08T05:21:10;13.30;99.90
44559;DHT22;30270;40.238;18.256;2022-12-08T05:23:37;13.30;99.90
44559;DHT22;30270;40.238;18.256;2022-12-08T05:26:05;13.30;99.90
44559;DHT22;30270;40.238;18.256;2022-12-08T05:28:33;13.30;99.90
44559;DHT22;30270;40.238;18.256;2022-12-08T05:31:13;13.30;99.90
44559;DHT22;30270;40.238;18.256;2022-12-08T05:33:41;13.30;99.90
44559;DHT22;30270;40.238;18.256;2022-12-08T05:36:13;13.30;99.90
44559;DHT22;30270;40.238;18.256;2022-12-08T05:38:41;13.40;99.90
44559;DHT22;30270;40.238;18.256;2022-12-08T05:41:13;13.40;99.90
44559;DHT22;30270;40.238;18.256;2022-12-08T05:43:41;13.40;99.90
44559;DHT22;30270;40.238;18.256;2022-12-08T05:46:08;13.40;99.90
44559;DHT22;30270;40.238;18.256;2022-12-08T05:48:36;13.40;99.90
44559;DHT22;30270;40.238;18.256;2022-12-08T05:51:04;13.40;99.90
44559;DHT22;30270;40.238;18.256;2022-12-08T05:53:33;13.40;99.90
44559;DHT22;30270;40.238;18.256;2022-12-08T05:56:00;13.30;99.90
44559;DHT22;30270;40.238;18.256;2022-12-08T05:58:28;13.30;99.90
44559;DHT22;30270;40.238;18.256;2022-12-08T06:00:55;13.20;99.90
44559;DHT22;30270;40.238;18.256;2022-12-08T06:03:23;13.20;99.90
44559;DHT22;30270;40.238;18.256;2022-12-08T06:05:50;13.20;99.90
44559;DHT22;30270;40.238;18.256;2022-12-08T06:08:18;13.20;99.90
44559;DHT22;30270;40.238;18.256;2022-12-08T06:10:45;13.20;99.90
44559;DHT22;30270;40.238;18.256;2022-12-08T06:13:14;13.20;99.90
44559;DHT22;30270;40.238;18.256;2022-12-08T06:15:41;13.30;99.90
44559;DHT22;30270;40.238;18.256;2022-12-08T06:18:10;13.30;99.90
44559;DHT22;30270;40.238;18.256;2022-12-08T06:20:37;13.30;99.90
44559;DHT22;30270;40.238;18.256;2022-12-08T06:23:05;13.40;99.90
44559;DHT22;30270;40.238;18.256;2022-12-08T06:25:33;13.40;99.90
44559;DHT22;30270;40.238;18.256;2022-12-08T06:28:00;13.40;99.90
44559;DHT22;30270;40.238;18.256;2022-12-08T06:30:28;13.40;99.90
44559;DHT22;30270;40.238;18.256;2022-12-08T06:32:55;13.40;99.90
44559;DHT22;30270;40.238;18.256;2022-12-08T06:35:23;13.40;99.90
44559;DHT22;30270;40.238;18.256;2022-12-08T06:37:50;13.40;99.90
44559;DHT22;30270;40.238;18.256;2022-12-08T06:40:18;13.40;99.90
44559;DHT22;30270;40.238;18.256;2022-12-08T06:42:46;13.40;99.90
44559;DHT22;30270;40.238;18.256;2022-12-08T06:45:15;13.50;99.90
44559;DHT22;30270;40.238;18.256;2022-12-08T06:47:44;13.60;99.90
44559;DHT22;30270;40.238;18.256;2022-12-08T06:50:12;13.60;99.90
44559;DHT22;30270;40.238;18.256;2022-12-08T06:52:40;13.70;99.90
44559;DHT22;30270;40.238;18.256;2022-12-08T06:55:15;13.70;99.90
44559;DHT22;30270;40.238;18.256;2022-12-08T06:58:01;13.70;99.90
44559;DHT22;30270;40.238;18.256;2022-12-08T07:00:28;13.90;99.90
44559;DHT22;30270;40.238;18.256;2022-12-08T07:02:56;13.90;99.90
44559;DHT22;30270;40.238;18.256;2022-12-08T07:05:23;14.00;99.90
44559;DHT22;30270;40.238;18.256;2022-12-08T07:07:51;14.00;99.90
44559;DHT22;30270;40.238;18.256;2022-12-08T07:10:19;14.10;99.90
44559;DHT22;30270;40.238;18.256;2022-12-08T07:12:46;14.20;99.90
44559;DHT22;30270;40.238;18.256;2022-12-08T07:15:14;14.30;99.90
44559;DHT22;30270;40.238;18.256;2022-12-08T07:17:42;14.50;99.90
44559;DHT22;30270;40.238;18.256;2022-12-08T07:20:10;14.60;99.90
44559;DHT22;30270;40.238;18.256;2022-12-08T07:22:37;14.70;99.90
44559;DHT22;30270;40.238;18.256;2022-12-08T07:25:06;14.90;99.90
44559;DHT22;30270;40.238;18.256;2022-12-08T07:27:33;15.00;99.90
44559;DHT22;30270;40.238;18.256;2022-12-08T07:30:01;15.10;99.90
44559;DHT22;30270;40.238;18.256;2022-12-08T07:32:29;15.20;99.90
44559;DHT22;30270;40.238;18.256;2022-12-08T07:34:56;15.30;99.90
44559;DHT22;30270;40.238;18.256;2022-12-08T07:37:24;15.40;99.90
44559;DHT22;30270;40.238;18.256;2022-12-08T07:39:51;15.50;99.90
44559;DHT22;30270;40.238;18.256;2022-12-08T07:42:19;15.60;99.90
44559;DHT22;30270;40.238;18.256;2022-12-08T07:44:46;15.60;99.90
44559;DHT22;30270;40.238;18.256;2022-12-08T07:47:14;15.70;99.90
44559;DHT22;30270;40.238;18.256;2022-12-08T07:49:44;15.70;99.90
44559;DHT22;30270;40.238;18.256;2022-12-08T07:52:11;15.80;99.90
44559;DHT22;30270;40.238;18.256;2022-12-08T07:54:39;15.80;99.90
44559;DHT22;30270;40.238;18.256;2022-12-08T07:57:06;15.90;99.90
44559;DHT22;30270;40.238;18.256;2022-12-08T07:59:36;15.90;99.90
44559;DHT22;30270;40.238;18.256;2022-12-08T08:02:03;16.00;99.90
44559;DHT22;30270;40.238;18.256;2022-12-08T08:04:49;15.90;99.90
44559;DHT22;30270;40.238;18.256;2022-12-08T08:07:17;16.00;99.90
44559;DHT22;30270;40.238;18.256;2022-12-08T08:09:44;16.00;99.90
44559;DHT22;30270;40.238;18.256;2022-12-08T08:12:12;16.10;99.90
44559;DHT22;30270;40.238;18.256;2022-12-08T08:14:56;16.10;99.90
44559;DHT22;30270;40.238;18.256;2022-12-08T08:17:23;16.20;99.90
44559;DHT22;30270;40.238;18.256;2022-12-08T08:19:51;16.30;99.90
44559;DHT22;30270;40.238;18.256;2022-12-08T08:22:19;16.40;99.90
44559;DHT22;30270;40.238;18.256;2022-12-08T08:24:47;16.50;99.90
44559;DHT22;30270;40.238;18.256;2022-12-08T08:27:14;16.50;99.90
44559;DHT22;30270;40.238;18.256;2022-12-08T08:29:42;16.60;99.90
44559;DHT22;30270;40.238;18.256;2022-12-08T08:32:10;16.70;99.90
44559;DHT22;30270;40.238;18.256;2022-12-08T08:34:38;16.70;99.90
44559;DHT22;30270;40.238;18.256;2022-12-08T08:37:06;16.70;99.90
44559;DHT22;30270;40.238;18.256;2022-12-08T08:39:33;16.80;99.90
44559;DHT22;30270;40.238;18.256;2022-12-08T08:42:01;16.90;99.90
44559;DHT22;30270;40.238;18.256;2022-12-08T08:44:28;16.90;99.90
44559;DHT22;30270;40.238;18.256;2022-12-08T08:46:56;16.90;99.90
44559;DHT22;30270;40.238;18.256;2022-12-08T08:49:23;16.80;99.90
44559;DHT22;30270;40.238;18.256;2022-12-08T08:51:51;16.80;99.90
44559;DHT22;30270;40.238;18.256;2022-12-08T08:54:19;16.80;99.90
44559;DHT22;30270;40.238;18.256;2022-12-08T08:56:46;16.80;99.90
44559;DHT22;30270;40.238;18.256;2022-12-08T08:59:14;16.90;99.90
44559;DHT22;30270;40.238;18.256;2022-12-08T09:01:42;17.00;99.90
44559;DHT22;30270;40.238;18.256;2022-12-08T09:04:09;17.00;99.90
44559;DHT22;30270;40.238;18.256;2022-12-08T09:06:37;17.10;99.90
44559;DHT22;30270;40.238;18.256;2022-12-08T09:09:04;17.20;99.90
44559;DHT22;30270;40.238;18.256;2022-12-08T09:11:32;17.30;99.90
44559;DHT22;30270;40.238;18.256;2022-12-08T09:14:00;17.30;99.90
44559;DHT22;30270;40.238;18.256;2022-12-08T09:16:29;17.40;99.90
44559;DHT22;30270;40.238;18.256;2022-12-08T09:18:57;17.40;99.90
44559;DHT22;30270;40.238;18.256;2022-12-08T09:21:25;17.50;99.90
44559;DHT22;30270;40.238;18.256;2022-12-08T09:23:55;17.60;99.90
44559;DHT22;30270;40.238;18.256;2022-12-08T09:26:24;17.60;99.90
44559;DHT22;30270;40.238;18.256;2022-12-08T09:28:54;17.60;99.90
44559;DHT22;30270;40.238;18.256;2022-12-08T09:31:22;17.70;99.90
44559;DHT22;30270;40.238;18.256;2022-12-08T09:33:50;17.80;99.90
44559;DHT22;30270;40.238;18.256;2022-12-08T09:36:19;17.90;99.90
44559;DHT22;30270;40.238;18.256;2022-12-08T09:38:47;17.90;99.90
44559;DHT22;30270;40.238;18.256;2022-12-08T09:46:39;18.30;99.90
44559;DHT22;30270;40.238;18.256;2022-12-08T09:49:14;18.50;99.90
44559;DHT22;30270;40.238;18.256;2022-12-08T09:51:43;18.60;99.90
44559;DHT22;30270;40.238;18.256;2022-12-08T09:54:23;18.50;99.90
44559;DHT22;30270;40.238;18.256;2022-12-08T09:56:53;18.60;99.90
44559;DHT22;30270;40.238;18.256;2022-12-08T09:59:33;18.70;99.90
44559;DHT22;30270;40.238;18.256;2022-12-08T10:02:12;18.80;99.90
44559;DHT22;30270;40.238;18.256;2022-12-08T10:04:45;19.00;99.90
44559;DHT22;30270;40.238;18.256;2022-12-08T10:18:19;19.00;99.90
44559;DHT22;30270;40.238;18.256;2022-12-08T10:20:48;19.00;99.90
44559;DHT22;30270;40.238;18.256;2022-12-08T10:23:27;19.10;99.90
44559;DHT22;30270;40.238;18.256;2022-12-08T10:26:03;19.10;99.90
44559;DHT22;30270;40.238;18.256;2022-12-08T10:28:32;19.10;99.90
44559;DHT22;30270;40.238;18.256;2022-12-08T10:31:02;19.20;99.90
44559;DHT22;30270;40.238;18.256;2022-12-08T10:33:31;19.30;99.90
44559;DHT22;30270;40.238;18.256;2022-12-08T10:35:59;19.40;99.90
44559;DHT22;30270;40.238;18.256;2022-12-08T10:38:33;19.50;99.90
44559;DHT22;30270;40.238;18.256;2022-12-08T10:41:13;19.40;99.90
44559;DHT22;30270;40.238;18.256;2022-12-08T10:43:47;19.30;99.90
44559;DHT22;30270;40.238;18.256;2022-12-08T10:46:18;19.40;99.90
44559;DHT22;30270;40.238;18.256;2022-12-08T10:48:52;19.40;99.90
44559;DHT22;30270;40.238;18.256;2022-12-08T10:54:00;19.20;99.90
44559;DHT22;30270;40.238;18.256;2022-12-08T10:56:30;19.30;99.90
44559;DHT22;30270;40.238;18.256;2022-12-08T10:59:13;19.40;99.90
44559;DHT22;30270;40.238;18.256;2022-12-08T11:01:45;19.40;99.90
44559;DHT22;30270;40.238;18.256;2022-12-08T11:04:21;19.40;99.90
44559;DHT22;30270;40.238;18.256;2022-12-08T11:06:51;19.10;99.90
44559;DHT22;30270;40.238;18.256;2022-12-08T11:14:26;19.20;99.90
44559;DHT22;30270;40.238;18.256;2022-12-08T11:17:04;19.40;99.90
44559;DHT22;30270;40.238;18.256;2022-12-08T11:19:37;19.40;99.90
44559;DHT22;30270;40.238;18.256;2022-12-08T11:22:28;19.50;99.90
44559;DHT22;30270;40.238;18.256;2022-12-08T11:27:43;19.60;99.90
44559;DHT22;30270;40.238;18.256;2022-12-08T11:30:34;19.40;99.90
44559;DHT22;30270;40.238;18.256;2022-12-08T11:35:43;19.50;99.90
44559;DHT22;30270;40.238;18.256;2022-12-08T11:38:14;19.40;99.90
44559;DHT22;30270;40.238;18.256;2022-12-08T11:41:19;19.50;99.90
44559;DHT22;30270;40.238;18.256;2022-12-08T11:46:26;19.70;99.90
44559;DHT22;30270;40.238;18.256;2022-12-08T11:48:59;19.80;99.90
44559;DHT22;30270;40.238;18.256;2022-12-08T11:51:56;19.80;99.90
44559;DHT22;30270;40.238;18.256;2022-12-08T11:54:31;19.60;99.90
44559;DHT22;30270;40.238;18.256;2022-12-08T11:57:02;19.50;99.90
44559;DHT22;30270;40.238;18.256;2022-12-08T12:02:13;19.20;99.90
44559;DHT22;30270;40.238;18.256;2022-12-08T12:04:50;19.30;99.90
44559;DHT22;30270;40.238;18.256;2022-12-08T12:16:26;19.60;99.90
44559;DHT22;30270;40.238;18.256;2022-12-08T12:19:02;19.50;99.90
44559;DHT22;30270;40.238;18.256;2022-12-08T12:24:06;19.20;99.90
44559;DHT22;30270;40.238;18.256;2022-12-08T12:26:39;19.20;99.90
44559;DHT22;30270;40.238;18.256;2022-12-08T12:29:18;19.00;99.90
44559;DHT22;30270;40.238;18.256;2022-12-08T12:31:51;18.80;99.90
44559;DHT22;30270;40.238;18.256;2022-12-08T12:40:06;19.10;99.90
44559;DHT22;30270;40.238;18.256;2022-12-08T12:42:45;19.00;99.90
44559;DHT22;30270;40.238;18.256;2022-12-08T12:47:51;18.70;99.90
44559;DHT22;30270;40.238;18.256;2022-12-08T12:55:53;19.00;99.90
44559;DHT22;30270;40.238;18.256;2022-12-08T13:00:49;18.90;99.90
44559;DHT22;30270;40.238;18.256;2022-12-08T13:03:16;18.80;99.90
44559;DHT22;30270;40.238;18.256;2022-12-08T13:05:51;18.80;99.90
44559;DHT22;30270;40.238;18.256;2022-12-08T13:08:22;18.70;99.90
44559;DHT22;30270;40.238;18.256;2022-12-08T13:11:07;18.70;99.90
44559;DHT22;30270;40.238;18.256;2022-12-08T13:13:37;18.70;99.90
44559;DHT22;30270;40.238;18.256;2022-12-08T13:18:46;18.60;99.90
44559;DHT22;30270;40.238;18.256;2022-12-08T13:21:22;18.60;99.90
44559;DHT22;30270;40.238;18.256;2022-12-08T13:26:47;18.50;99.90
44559;DHT22;30270;40.238;18.256;2022-12-08T13:29:23;18.40;99.90
44559;DHT22;30270;40.238;18.256;2022-12-08T13:42:36;18.40;99.90
44559;DHT22;30270;40.238;18.256;2022-12-08T13:48:05;18.30;99.90
44559;DHT22;30270;40.238;18.256;2022-12-08T13:51:06;18.20;99.90
44559;DHT22;30270;40.238;18.256;2022-12-08T13:54:03;18.20;99.90
44559;DHT22;30270;40.238;18.256;2022-12-08T13:56:53;18.00;99.90
44559;DHT22;30270;40.238;18.256;2022-12-08T13:59:34;18.00;99.90
44559;DHT22;30270;40.238;18.256;2022-12-08T14:02:35;17.90;99.90
44559;DHT22;30270;40.238;18.256;2022-12-08T14:05:06;17.80;99.90
44559;DHT22;30270;40.238;18.256;2022-12-08T14:07:55;17.70;99.90
44559;DHT22;30270;40.238;18.256;2022-12-08T14:10:28;17.70;99.90
44559;DHT22;30270;40.238;18.256;2022-12-08T14:13:10;17.70;99.90
44559;DHT22;30270;40.238;18.256;2022-12-08T14:15:39;17.70;99.90
44559;DHT22;30270;40.238;18.256;2022-12-08T14:18:23;17.70;99.90
44559;DHT22;30270;40.238;18.256;2022-12-08T14:21:05;17.70;99.90
44559;DHT22;30270;40.238;18.256;2022-12-08T14:23:48;17.70;99.90
44559;DHT22;30270;40.238;18.256;2022-12-08T14:26:16;17.60;99.90
44559;DHT22;30270;40.238;18.256;2022-12-08T14:28:44;17.50;99.90
44559;DHT22;30270;40.238;18.256;2022-12-08T14:31:11;17.50;99.90
44559;DHT22;30270;40.238;18.256;2022-12-08T14:33:40;17.50;99.90
44559;DHT22;30270;40.238;18.256;2022-12-08T14:36:09;17.40;99.90
44559;DHT22;30270;40.238;18.256;2022-12-08T14:38:37;17.40;99.90
44559;DHT22;30270;40.238;18.256;2022-12-08T14:41:06;17.30;99.90
44559;DHT22;30270;40.238;18.256;2022-12-08T14:43:34;17.20;99.90
44559;DHT22;30270;40.238;18.256;2022-12-08T14:46:11;17.20;99.90
44559;DHT22;30270;40.238;18.256;2022-12-08T14:48:45;17.10;99.90
44559;DHT22;30270;40.238;18.256;2022-12-08T14:53:53;17.00;99.90
44559;DHT22;30270;40.238;18.256;2022-12-08T14:59:20;16.80;99.90
44559;DHT22;30270;40.238;18.256;2022-12-08T15:01:52;16.70;99.90
44559;DHT22;30270;40.238;18.256;2022-12-08T15:04:26;16.60;99.90
44559;DHT22;30270;40.238;18.256;2022-12-08T15:12:20;16.50;99.90
44559;DHT22;30270;40.238;18.256;2022-12-08T15:15:10;16.40;99.90
44559;DHT22;30270;40.238;18.256;2022-12-08T15:26:03;16.20;99.90
44559;DHT22;30270;40.238;18.256;2022-12-08T15:28:31;16.10;99.90
44559;DHT22;30270;40.238;18.256;2022-12-08T15:30:59;16.10;99.90
44559;DHT22;30270;40.238;18.256;2022-12-08T15:33:26;16.00;99.90
44559;DHT22;30270;40.238;18.256;2022-12-08T15:35:54;16.00;99.90
44559;DHT22;30270;40.238;18.256;2022-12-08T15:38:26;16.00;99.90
44559;DHT22;30270;40.238;18.256;2022-12-08T15:40:56;15.90;99.90
44559;DHT22;30270;40.238;18.256;2022-12-08T15:43:24;15.90;99.90
44559;DHT22;30270;40.238;18.256;2022-12-08T15:45:53;15.80;99.90
44559;DHT22;30270;40.238;18.256;2022-12-08T15:48:27;15.70;99.90
44559;DHT22;30270;40.238;18.256;2022-12-08T15:50:56;15.70;99.90
44559;DHT22;30270;40.238;18.256;2022-12-08T15:53:24;15.70;99.90
44559;DHT22;30270;40.238;18.256;2022-12-08T15:55:52;15.60;99.90
44559;DHT22;30270;40.238;18.256;2022-12-08T15:58:40;15.60;99.90
44559;DHT22;30270;40.238;18.256;2022-12-08T16:01:24;15.50;99.90
44559;DHT22;30270;40.238;18.256;2022-12-08T16:03:51;15.50;99.90
44559;DHT22;30270;40.238;18.256;2022-12-08T16:06:41;15.50;99.90
44559;DHT22;30270;40.238;18.256;2022-12-08T16:09:40;15.40;99.90
44559;DHT22;30270;40.238;18.256;2022-12-08T16:12:16;15.30;99.90
44559;DHT22;30270;40.238;18.256;2022-12-08T16:15:23;15.30;99.90
44559;DHT22;30270;40.238;18.256;2022-12-08T16:18:15;15.30;99.90
44559;DHT22;30270;40.238;18.256;2022-12-08T16:20:43;15.30;99.90
44559;DHT22;30270;40.238;18.256;2022-12-08T16:23:31;15.20;99.90
44559;DHT22;30270;40.238;18.256;2022-12-08T16:26:18;15.20;99.90
44559;DHT22;30270;40.238;18.256;2022-12-08T16:29:03;15.20;99.90
44559;DHT22;30270;40.238;18.256;2022-12-08T16:31:31;15.20;99.90
44559;DHT22;30270;40.238;18.256;2022-12-08T16:33:59;15.10;99.90
44559;DHT22;30270;40.238;18.256;2022-12-08T16:36:26;15.00;99.90
44559;DHT22;30270;40.238;18.256;2022-12-08T16:38:54;15.00;99.90
44559;DHT22;30270;40.238;18.256;2022-12-08T16:41:21;15.00;99.90
44559;DHT22;30270;40.238;18.256;2022-12-08T16:44:07;15.00;99.90
44559;DHT22;30270;40.238;18.256;2022-12-08T16:46:35;15.00;99.90
44559;DHT22;30270;40.238;18.256;2022-12-08T16:49:03;14.90;99.90
44559;DHT22;30270;40.238;18.256;2022-12-08T16:51:31;14.90;99.90
44559;DHT22;30270;40.238;18.256;2022-12-08T16:53:58;14.90;99.90
44559;DHT22;30270;40.238;18.256;2022-12-08T16:56:26;14.80;99.90
44559;DHT22;30270;40.238;18.256;2022-12-08T16:58:58;14.80;99.90
44559;DHT22;30270;40.238;18.256;2022-12-08T17:01:26;14.80;99.90
44559;DHT22;30270;40.238;18.256;2022-12-08T17:03:53;14.80;99.90
44559;DHT22;30270;40.238;18.256;2022-12-08T17:06:41;14.80;99.90
44559;DHT22;30270;40.238;18.256;2022-12-08T17:09:08;14.80;99.90
44559;DHT22;30270;40.238;18.256;2022-12-08T17:11:36;14.70;99.90
44559;DHT22;30270;40.238;18.256;2022-12-08T17:14:09;14.70;99.90
44559;DHT22;30270;40.238;18.256;2022-12-08T17:16:36;14.70;99.90
44559;DHT22;30270;40.238;18.256;2022-12-08T17:19:04;14.60;99.90
44559;DHT22;30270;40.238;18.256;2022-12-08T17:21:32;14.60;99.90
44559;DHT22;30270;40.238;18.256;2022-12-08T17:23:59;14.60;99.90
44559;DHT22;30270;40.238;18.256;2022-12-08T17:26:27;14.60;99.90
44559;DHT22;30270;40.238;18.256;2022-12-08T17:28:54;14.50;99.90
44559;DHT22;30270;40.238;18.256;2022-12-08T17:31:26;14.50;99.90
44559;DHT22;30270;40.238;18.256;2022-12-08T17:33:58;14.50;99.90
44559;DHT22;30270;40.238;18.256;2022-12-08T17:36:26;14.40;99.90
44559;DHT22;30270;40.238;18.256;2022-12-08T17:38:54;14.40;99.90
44559;DHT22;30270;40.238;18.256;2022-12-08T17:41:22;14.40;99.90
44559;DHT22;30270;40.238;18.256;2022-12-08T17:43:50;14.40;99.90
44559;DHT22;30270;40.238;18.256;2022-12-08T17:46:18;14.40;99.90
44559;DHT22;30270;40.238;18.256;2022-12-08T17:48:47;14.40;99.90
44559;DHT22;30270;40.238;18.256;2022-12-08T17:51:15;14.30;99.90
44559;DHT22;30270;40.238;18.256;2022-12-08T17:53:43;14.40;99.90
44559;DHT22;30270;40.238;18.256;2022-12-08T17:56:16;14.30;99.90
44559;DHT22;30270;40.238;18.256;2022-12-08T17:58:45;14.30;99.90
44559;DHT22;30270;40.238;18.256;2022-12-08T18:01:14;14.30;99.90